EPRA

Details ICAO EPRA (QXR)
Name RADOM SADKOW
Region Poland
Timezone Europe/Warsaw (UTC+2.0)
Plans Departing 25
Arriving 26
Stats Elevation 623 ft / 190 m (AMSL)
Location 51.388880° 21.211661°
Runways 1
Magnetic Variation 5.793° E
Sunrise 2018-05-26 02:31:27 UTC / 2018-05-26 04:31:27 Local
Sunset 2018-05-26 18:35:48 UTC / 2018-05-26 20:35:48 Local
Advertisement - Login to hide

Runways

ID Width Length Bearing (true) Bearing (mag) Surface Threshold Offset Overrun Length
07 197 ft / 60 m 6,569 ft / 2,002 m 74.99° 69.20° Concrete 0 ft / 0 m 0 ft / 0 m
25 197 ft / 60 m 6,569 ft / 2,002 m 255.01° 249.22° Concrete 0 ft / 0 m 0 ft / 0 m

Map

Weather


0- 5 10 15 20 25 30 35+ Temperature / ° C

Clouds and Precipitation
Forecast for 2018-05-26 06:00 UTC. Updated 2 hours ago

Ground ~20,000 ft ~40,000 ft Winds

METAR

EPRA 260700Z 08006KT 050V120 CAVOK 19/18 Q1022

TAF

Not found

Frequencies

Tower 131.10 MHz RADOM TOWER
Approach 128.68 MHz RADOM APPROACH
Warning: Do not use this data for real-world aviation or navigation. No guarantee of current accuracy is given.